| time (UTC) | temp F | wind direction | speed knots | gust knots | rain 1hr in | rain 24hr in | rain mn in | humidity % | barometer mb |
| 20260504191540 | 77 | 286 | 7.0 | 0.0 | 0.00 | 0.00 | 0.00 | 54 | 1000.5 |
| 20260504190128 | 76 | 311 | 7.0 | 0.0 | 0.00 | 0.00 | 0.00 | 55 | 1000.8 |
| 20260504184556 | 75 | 224 | 5.2 | 0.0 | 0.00 | 0.00 | 0.00 | 56 | 1000.9 |
| 20260504183015 | 75 | 271 | 6.1 | 0.0 | 0.00 | 0.00 | 0.00 | 56 | 1001.1 |
| 20260504181535 | 75 | 263 | 7.0 | 0.0 | 0.00 | 0.00 | 0.00 | 56 | 1001.3 |
| 20260504180005 | 74 | 278 | 5.2 | 0.0 | 0.00 | 0.00 | 0.00 | 60 | 1001.5 |
| 20260504174521 | 73 | 198 | 6.1 | 0.0 | 0.00 | 0.00 | 0.00 | 60 | 1001.6 |
| 20260504173052 | 73 | 275 | 5.2 | 0.0 | 0.00 | 0.00 | 0.00 | 60 | 1001.8 |
| 20260504171507 | 72 | 195 | 6.1 | 0.0 | 0.00 | 0.00 | 0.00 | 59 | 1002.0 |
| 20260504081601 | 51 | 208 | 2.6 | 0.0 | 0.00 | 0.00 | 0.00 | 78 | 1005.0 |
| 20260504044500 | 50 | 202 | 1.7 | 0.0 | 0.00 | 0.00 | 0.00 | 79 | 1007.7 |
| 20260504043031 | 50 | 198 | 1.7 | 0.0 | 0.00 | 0.00 | 0.00 | 79 | 1007.7 |
| 20260504041549 | 50 | 205 | 1.7 | 0.0 | 0.00 | 0.00 | 0.00 | 80 | 1007.6 |
| 20260504040002 | 49 | 211 | 1.7 | 0.0 | 0.00 | 0.00 | 0.00 | 81 | 1007.7 |
| 20260504034531 | 49 | 230 | 0.9 | 0.0 | 0.00 | 0.00 | 0.00 | 81 | 1008.0 |
| 20260504033042 | 49 | 237 | 0.9 | 0.0 | 0.00 | 0.00 | 0.00 | 81 | 1008.0 |
| 20260504031501 | 49 | 214 | 0.9 | 0.0 | 0.00 | 0.00 | 0.00 | 82 | 1008.2 |
| 20260504030021 | 49 | 212 | 1.7 | 0.0 | 0.00 | 0.00 | 0.00 | 83 | 1008.1 |
| 20260504024549 | 49 | 215 | 0.9 | 0.0 | 0.00 | 0.00 | 0.00 | 83 | 1008.4 |
| 20260504023005 | 49 | 203 | 0.9 | 0.0 | 0.00 | 0.00 | 0.00 | 83 | 1008.3 |
| 20260504021520 | 49 | 217 | 0.9 | 0.0 | 0.00 | 0.00 | 0.00 | 83 | 1008.4 |
| 20260504020040 | 49 | 202 | 0.9 | 0.0 | 0.00 | 0.00 | 0.00 | 83 | 1008.4 |
| 20260504014558 | 49 | 200 | 0.9 | 0.0 | 0.00 | 0.00 | 0.00 | 83 | 1008.3 |
| 20260504013012 | 49 | 200 | 0.9 | 0.0 | 0.00 | 0.00 | 0.00 | 83 | 1008.4 |
| 20260504011531 | 49 | 250 | 0.9 | 0.0 | 0.00 | 0.00 | 0.00 | 83 | 1008.4 |
| 20260504010110 | 50 | 302 | 0.0 | 0.0 | 0.00 | 0.00 | 0.00 | 82 | 1008.4 |
| 20260504004509 | 51 | 236 | 0.9 | 0.0 | 0.00 | 0.00 | 0.00 | 80 | 1008.6 |
| 20260504003027 | 51 | 313 | 0.0 | 0.0 | 0.00 | 0.00 | 0.00 | 79 | 1008.5 |
| 20260504001602 | 52 | 305 | 1.7 | 0.0 | 0.00 | 0.00 | 0.00 | 79 | 1008.5 |
| 20260504000038 | 52 | 221 | 1.7 | 0.0 | 0.00 | 0.00 | 0.00 | 79 | 1008.8 |
| 20260503234546 | 52 | 203 | 1.7 | 0.0 | 0.00 | 0.00 | 0.00 | 78 | 1008.9 |
| 20260503233016 | 53 | 316 | 1.7 | 0.0 | 0.00 | 0.00 | 0.00 | 76 | 1009.1 |
| 20260503231541 | 54 | 338 | 1.7 | 0.0 | 0.00 | 0.00 | 0.00 | 75 | 1009.3 |
| 20260503230054 | 54 | 275 | 1.7 | 0.0 | 0.00 | 0.00 | 0.00 | 75 | 1009.4 |
| 20260503224502 | 54 | 226 | 2.6 | 0.0 | 0.00 | 0.00 | 0.00 | 75 | 1009.8 |
| 20260503223020 | 53 | 185 | 2.6 | 0.0 | 0.00 | 0.00 | 0.00 | 77 | 1010.1 |
| 20260503221544 | 51 | 237 | 2.6 | 0.0 | 0.00 | 0.00 | 0.00 | 80 | 1010.1 |
| 20260503214508 | 49 | 196 | 1.7 | 0.0 | 0.00 | 0.00 | 0.00 | 81 | 1010.3 |
| 20260503213033 | 49 | 205 | 0.9 | 0.0 | 0.00 | 0.00 | 0.00 | 82 | 1010.4 |
| 20260503211510 | 48 | 53 | 2.6 | 0.0 | 0.00 | 0.00 | 0.00 | 82 | 1010.4 |
| 20260503210042 | 48 | 257 | 1.7 | 0.0 | 0.00 | 0.00 | 0.00 | 82 | 1010.7 |
| 20260503204557 | 48 | 192 | 2.6 | 0.0 | 0.00 | 0.00 | 0.00 | 81 | 1011.0 |
| 20260503203014 | 49 | 188 | 5.2 | 0.0 | 0.00 | 0.00 | 0.00 | 81 | 1011.6 |
| 20260503201539 | 49 | 219 | 4.3 | 0.0 | 0.00 | 0.00 | 0.00 | 81 | 1012.3 |
| 20260503200059 | 49 | 170 | 7.8 | 0.0 | 0.00 | 0.00 | 0.00 | 78 | 1012.8 |
| 20260503194527 | 51 | 273 | 8.7 | 0.0 | 0.00 | 0.00 | 0.00 | 77 | 1013.1 |
| 20260503193051 | 53 | 244 | 9.6 | 0.0 | 0.00 | 0.00 | 0.00 | 70 | 1013.2 |